createdAt,value
2023-04-16T00:02:15.032Z,100813.66
2023-04-16T00:04:42.263Z,100813.50
2023-04-16T00:07:09.500Z,100811.38
2023-04-16T00:09:36.626Z,100815.56
2023-04-16T00:12:04.299Z,100819.53
2023-04-16T00:14:31.591Z,100816.91
2023-04-16T00:16:58.746Z,100822.72
2023-04-16T00:19:28.135Z,100831.25
2023-04-16T00:21:55.422Z,100829.25
2023-04-16T00:24:22.551Z,100829.63
2023-04-16T00:26:49.622Z,100829.97
2023-04-16T00:29:16.729Z,100825.84
2023-04-16T00:31:43.777Z,100831.38
2023-04-16T00:34:10.798Z,100829.13
2023-04-16T00:36:37.849Z,100828.66
2023-04-16T00:39:05.025Z,100828.06
2023-04-16T00:41:32.136Z,100825.56
2023-04-16T00:43:59.199Z,100818.72
2023-04-16T00:46:26.769Z,100825.75
2023-04-16T00:48:55.378Z,100826.84
2023-04-16T00:51:23.476Z,100829.59
2023-04-16T00:53:51.635Z,100823.31
2023-04-16T00:56:19.086Z,100833.19
2023-04-16T00:58:46.132Z,100826.34
2023-04-16T01:01:14.511Z,100835.06
2023-04-16T01:03:47.651Z,100827.75
2023-04-16T01:06:17.820Z,100821.63
2023-04-16T01:08:46.450Z,100836.44
2023-04-16T01:11:15.932Z,100832.53
2023-04-16T01:13:43.102Z,100842.28
2023-04-16T01:16:12.696Z,100842.34
2023-04-16T01:18:39.974Z,100839.31
2023-04-16T01:21:07.076Z,100847.25
2023-04-16T01:23:34.184Z,100849.22
2023-04-16T01:26:01.372Z,100852.63
2023-04-16T01:28:28.469Z,100857.63
2023-04-16T01:30:55.670Z,100854.31
2023-04-16T01:33:22.916Z,100851.72
2023-04-16T01:35:49.976Z,100850.22
2023-04-16T01:38:17.231Z,100854.28
2023-04-16T01:40:44.321Z,100856.16
2023-04-16T01:43:11.390Z,100848.06
2023-04-16T01:45:38.444Z,100850.25
2023-04-16T01:48:05.931Z,100856.50
2023-04-16T01:50:33.343Z,100851.69
2023-04-16T01:53:01.977Z,100859.47
2023-04-16T01:55:34.245Z,100855.53
2023-04-16T01:58:01.365Z,100855.69
2023-04-16T02:00:28.496Z,100855.59
2023-04-16T02:02:55.759Z,100856.69
2023-04-16T02:05:22.979Z,100860.22
2023-04-16T02:07:50.098Z,100868.31
2023-04-16T02:10:17.169Z,100863.09
2023-04-16T02:12:44.174Z,100866.19
2023-04-16T02:15:13.788Z,100871.06
2023-04-16T02:17:41.004Z,100871.00
2023-04-16T02:20:10.269Z,100870.00
2023-04-16T02:22:37.445Z,100870.94
2023-04-16T02:25:05.486Z,100870.25
2023-04-16T02:27:32.511Z,100874.03
2023-04-16T02:29:59.575Z,100873.44
2023-04-16T02:32:26.817Z,100868.69
2023-04-16T02:34:53.929Z,100870.09
2023-04-16T02:37:21.002Z,100876.91
2023-04-16T02:39:49.693Z,100879.44
2023-04-16T02:42:16.977Z,100881.66
2023-04-16T02:44:44.029Z,100878.59
2023-04-16T02:47:11.097Z,100877.00
2023-04-16T02:49:38.154Z,100884.97
2023-04-16T02:52:05.457Z,100890.72
2023-04-16T02:54:32.504Z,100891.22
2023-04-16T02:56:59.551Z,100896.66
2023-04-16T02:59:26.924Z,100896.03
2023-04-16T03:01:53.992Z,100891.22
2023-04-16T03:04:21.153Z,100900.72
2023-04-16T03:06:48.352Z,100896.69
2023-04-16T03:09:15.370Z,100894.53
2023-04-16T03:11:42.481Z,100902.84
2023-04-16T03:14:09.507Z,100906.00
2023-04-16T03:16:36.761Z,100899.19
2023-04-16T03:19:03.806Z,100899.03
2023-04-16T03:21:31.195Z,100907.81
2023-04-16T03:23:58.277Z,100902.63
2023-04-16T03:26:25.635Z,100908.47
2023-04-16T03:28:52.732Z,100905.22
2023-04-16T03:31:19.913Z,100909.63
2023-04-16T03:33:47.860Z,100909.19
2023-04-16T03:36:14.909Z,100902.72
2023-04-16T03:38:41.986Z,100911.47
2023-04-16T03:41:09.013Z,100911.47
2023-04-16T03:43:36.059Z,100916.63
2023-04-16T03:46:05.264Z,100918.00
2023-04-16T03:48:32.436Z,100919.53
2023-04-16T03:50:59.673Z,100924.88
2023-04-16T03:53:26.802Z,100923.63
2023-04-16T03:55:53.962Z,100925.09
2023-04-16T03:58:21.453Z,100922.72
2023-04-16T04:00:49.089Z,100923.25
2023-04-16T04:03:19.233Z,100931.16
2023-04-16T04:05:46.761Z,100925.81
2023-04-16T04:08:13.849Z,100935.91
2023-04-16T04:10:40.891Z,100940.66
2023-04-16T04:13:08.111Z,100940.03
2023-04-16T04:15:35.316Z,100949.59
2023-04-16T04:18:02.448Z,100950.69
2023-04-16T04:20:29.741Z,100950.50
2023-04-16T04:22:56.791Z,100947.94
2023-04-16T04:25:24.112Z,100947.97
2023-04-16T04:27:51.283Z,100948.50
2023-04-16T04:30:18.462Z,100955.13
2023-04-16T04:32:45.856Z,100956.38
2023-04-16T04:35:12.982Z,100956.22
2023-04-16T04:37:40.078Z,100960.66
2023-04-16T04:40:08.455Z,100963.41
2023-04-16T04:42:35.494Z,100951.50
2023-04-16T04:45:02.552Z,100959.63
2023-04-16T04:47:29.640Z,100954.81
2023-04-16T04:49:56.760Z,100967.22
2023-04-16T04:52:23.854Z,100970.34
2023-04-16T04:54:50.945Z,100979.88
2023-04-16T04:57:18.204Z,100971.28
2023-04-16T04:59:45.613Z,100980.16
2023-04-16T05:02:15.400Z,100979.88
2023-04-16T05:04:44.841Z,100982.09
2023-04-16T05:07:11.915Z,100976.97
2023-04-16T05:09:38.917Z,100989.66
2023-04-16T05:12:07.902Z,100984.78
2023-04-16T05:14:36.131Z,100985.75
2023-04-16T05:17:03.281Z,100989.00
2023-04-16T05:19:30.496Z,100998.31
2023-04-16T05:21:57.784Z,100992.59
2023-04-16T05:24:24.842Z,101001.31
2023-04-16T05:26:52.021Z,101008.19
2023-04-16T05:29:19.161Z,101003.81
2023-04-16T05:31:46.293Z,101003.91
2023-04-16T05:34:14.448Z,101009.66
2023-04-16T05:36:41.544Z,101013.44
2023-04-16T05:39:08.977Z,101008.41
2023-04-16T05:41:36.409Z,101006.66
2023-04-16T05:44:03.863Z,101021.47
2023-04-16T05:46:31.358Z,101020.72
2023-04-16T05:48:58.430Z,101013.88
2023-04-16T05:51:27.219Z,101021.09
2023-04-16T05:53:54.286Z,101009.13
2023-04-16T05:56:21.918Z,101021.78
2023-04-16T05:58:48.984Z,101019.75
2023-04-16T06:01:16.266Z,101020.25
2023-04-16T06:03:43.568Z,101031.91
2023-04-16T06:06:11.169Z,101027.78
2023-04-16T06:08:38.272Z,101024.34
2023-04-16T06:11:05.546Z,101029.25
2023-04-16T06:13:32.594Z,101032.44
2023-04-16T06:15:59.779Z,101036.47
2023-04-16T06:18:26.879Z,101046.16
2023-04-16T06:20:54.019Z,101043.53
2023-04-16T06:23:21.174Z,101043.47
2023-04-16T06:25:48.180Z,101051.25
2023-04-16T06:28:15.407Z,101050.97
2023-04-16T06:30:44.522Z,101053.06
2023-04-16T06:33:12.311Z,101052.59
2023-04-16T06:35:39.405Z,101059.63
2023-04-16T06:38:06.415Z,101060.84
2023-04-16T06:40:33.594Z,101050.00
2023-04-16T06:43:01.032Z,101058.41
2023-04-16T06:45:28.118Z,101055.88
2023-04-16T06:47:55.222Z,101051.19
2023-04-16T06:50:23.338Z,101057.16
2023-04-16T06:52:50.470Z,101062.03
2023-04-16T06:55:17.689Z,101061.06
2023-04-16T06:57:44.987Z,101068.59
2023-04-16T07:00:12.889Z,101063.69
2023-04-16T07:02:40.098Z,101066.28
2023-04-16T07:05:08.878Z,101070.88
2023-04-16T07:07:36.024Z,101077.47
2023-04-16T07:10:03.353Z,101080.59
2023-04-16T07:12:31.417Z,101075.09
2023-04-16T07:14:58.513Z,101077.41
2023-04-16T07:17:25.686Z,101081.84
2023-04-16T07:19:53.057Z,101079.56
2023-04-16T07:22:20.987Z,101080.97
2023-04-16T07:24:48.038Z,101089.91
2023-04-16T07:27:15.091Z,101079.69
2023-04-16T07:29:42.164Z,101092.34
2023-04-16T07:32:09.325Z,101093.00
2023-04-16T07:34:36.478Z,101092.34
2023-04-16T07:37:03.514Z,101103.19
2023-04-16T07:39:30.890Z,101099.13
2023-04-16T07:41:57.934Z,101097.94
2023-04-16T07:44:25.097Z,101103.81
2023-04-16T07:46:52.304Z,101104.28
2023-04-16T07:49:19.437Z,101112.47
2023-04-16T07:51:47.076Z,101111.41
2023-04-16T07:54:14.284Z,101111.91
2023-04-16T07:56:41.376Z,101110.00
2023-04-16T08:01:44.447Z,101113.00
2023-04-16T08:04:22.885Z,101115.34
2023-04-16T08:06:54.153Z,101115.78
2023-04-16T08:09:23.956Z,101117.50
2023-04-16T08:11:54.155Z,101123.72
2023-04-16T08:14:21.200Z,101129.13
2023-04-16T08:16:48.498Z,101122.22
2023-04-16T08:19:15.634Z,101135.66
2023-04-16T08:21:43.352Z,101128.88
2023-04-16T08:24:10.858Z,101139.28
2023-04-16T08:26:37.976Z,101137.72
2023-04-16T08:29:05.210Z,101149.06
2023-04-16T08:31:32.865Z,101146.47
2023-04-16T08:34:01.530Z,101147.94
2023-04-16T08:36:28.658Z,101144.53
2023-04-16T08:38:55.717Z,101152.94
2023-04-16T08:41:23.959Z,101155.09
2023-04-16T08:43:53.865Z,101160.59
2023-04-16T08:46:24.894Z,101154.19
2023-04-16T08:48:57.967Z,101155.34
2023-04-16T08:51:29.783Z,101162.03
2023-04-16T08:54:10.922Z,101156.94
2023-04-16T08:56:43.082Z,101164.41
2023-04-16T08:59:10.733Z,101161.91
2023-04-16T09:01:39.718Z,101166.03
2023-04-16T09:04:08.192Z,101166.88
2023-04-16T09:06:36.574Z,101174.03
2023-04-16T09:09:06.494Z,101170.78
2023-04-16T09:11:34.332Z,101172.00
2023-04-16T09:14:02.009Z,101181.63
2023-04-16T09:16:34.417Z,101181.16
2023-04-16T09:19:01.730Z,101186.44
2023-04-16T09:21:29.038Z,101190.53
2023-04-16T09:23:56.725Z,101184.69
2023-04-16T09:26:24.448Z,101188.00
2023-04-16T09:28:51.666Z,101195.22
2023-04-16T09:31:19.872Z,101195.97
2023-04-16T09:34:09.076Z,101196.16
2023-04-16T09:36:37.315Z,101203.19
2023-04-16T09:39:04.617Z,101193.25
2023-04-16T09:41:36.020Z,101201.59
2023-04-16T09:44:06.024Z,101199.47
2023-04-16T09:46:41.696Z,101202.16
2023-04-16T09:49:17.137Z,101206.75
2023-04-16T09:51:47.915Z,101206.09
2023-04-16T09:54:15.544Z,101204.56
2023-04-16T09:56:46.932Z,101211.31
2023-04-16T09:59:24.410Z,101213.16
2023-04-16T10:01:57.232Z,101208.28
2023-04-16T10:04:53.275Z,101205.56
2023-04-16T10:07:21.729Z,101201.06
2023-04-16T10:09:49.941Z,101208.75
2023-04-16T10:12:17.498Z,101212.09
2023-04-16T10:14:46.896Z,101213.59
2023-04-16T10:17:18.405Z,101220.91
2023-04-16T10:19:46.578Z,101216.63
2023-04-16T10:22:13.810Z,101217.34
2023-04-16T10:24:41.852Z,101218.75
2023-04-16T10:27:08.942Z,101220.72
2023-04-16T10:29:36.991Z,101218.53
2023-04-16T10:32:06.006Z,101220.53
2023-04-16T10:34:33.590Z,101212.41
2023-04-16T10:37:00.873Z,101219.31
2023-04-16T10:39:34.361Z,101210.03
2023-04-16T10:42:12.792Z,101219.34
2023-04-16T10:44:45.320Z,101219.44
2023-04-16T10:47:14.460Z,101224.47
2023-04-16T10:49:45.137Z,101224.97
2023-04-16T10:52:20.113Z,101225.22
2023-04-16T10:54:50.760Z,101229.56
2023-04-16T10:57:20.570Z,101227.72
2023-04-16T10:59:49.376Z,101229.88
2023-04-16T11:02:19.922Z,101231.69
2023-04-16T11:04:49.667Z,101236.13
2023-04-16T11:07:21.703Z,101237.31
2023-04-16T11:10:06.839Z,101244.19
2023-04-16T11:12:42.849Z,101241.00
2023-04-16T11:15:16.402Z,101232.34
2023-04-16T11:17:52.823Z,101240.81
2023-04-16T11:20:22.979Z,101247.31
2023-04-16T11:22:53.676Z,101245.31
2023-04-16T11:25:26.992Z,101251.97
2023-04-16T11:27:54.677Z,101248.38
2023-04-16T11:30:39.561Z,101261.50
2023-04-16T11:33:12.016Z,101258.91
2023-04-16T11:35:40.274Z,101262.53
2023-04-16T11:38:07.823Z,101263.03
2023-04-16T11:40:36.292Z,101259.06
2023-04-16T11:43:23.993Z,101259.28
2023-04-16T11:46:16.689Z,101261.53
2023-04-16T11:48:56.413Z,101262.84
2023-04-16T11:51:24.056Z,101265.59
2023-04-16T11:53:53.641Z,101275.22
2023-04-16T11:56:35.723Z,101265.38
2023-04-16T11:59:16.807Z,101272.84
2023-04-16T12:01:53.692Z,101276.38
2023-04-16T12:04:29.358Z,101272.44
2023-04-16T12:07:13.486Z,101277.06
2023-04-16T12:09:44.342Z,101273.19
2023-04-16T12:12:32.522Z,101282.66
2023-04-16T12:15:04.022Z,101284.97
2023-04-16T12:17:34.023Z,101283.25
2023-04-16T12:20:14.209Z,101289.44
2023-04-16T12:22:49.488Z,101290.50
2023-04-16T12:25:18.276Z,101286.78
2023-04-16T12:27:55.927Z,101296.63
2023-04-16T12:30:27.281Z,101285.41
2023-04-16T12:33:17.773Z,101297.19
2023-04-16T12:35:45.397Z,101304.53
2023-04-16T12:38:14.945Z,101303.91
2023-04-16T12:40:42.100Z,101291.50
2023-04-16T12:43:10.485Z,101301.03
2023-04-16T12:45:39.715Z,101302.94
2023-04-16T12:48:06.963Z,101297.31
2023-04-16T12:50:34.392Z,101302.91
2023-04-16T12:53:01.531Z,101304.13
2023-04-16T12:55:28.727Z,101301.38
2023-04-16T12:57:56.039Z,101299.28
2023-04-16T13:00:23.829Z,101299.69
2023-04-16T13:02:51.108Z,101304.16
2023-04-16T13:05:19.427Z,101297.75
2023-04-16T13:07:46.928Z,101303.22
2023-04-16T13:10:16.950Z,101295.19
2023-04-16T13:12:46.484Z,101294.31
2023-04-16T13:15:13.888Z,101305.00
2023-04-16T13:17:41.021Z,101299.19
2023-04-16T13:20:09.721Z,101299.47
2023-04-16T13:22:37.026Z,101298.59
2023-04-16T13:25:05.227Z,101299.41
2023-04-16T13:27:32.570Z,101312.31
2023-04-16T13:29:59.792Z,101310.69
2023-04-16T13:32:27.265Z,101310.34
2023-04-16T13:34:54.411Z,101312.50
2023-04-16T13:37:21.539Z,101312.50
2023-04-16T13:39:48.612Z,101315.63
2023-04-16T13:42:15.786Z,101311.81
2023-04-16T13:44:43.020Z,101313.16
2023-04-16T13:47:11.162Z,101318.72
2023-04-16T13:49:38.475Z,101301.72
2023-04-16T13:52:05.600Z,101316.50
2023-04-16T13:54:34.289Z,101318.31
2023-04-16T13:57:01.443Z,101316.53
2023-04-16T13:59:28.892Z,101312.25
2023-04-16T14:01:59.110Z,101326.84
2023-04-16T14:04:26.290Z,101317.75
2023-04-16T14:06:53.473Z,101316.06
2023-04-16T14:09:21.050Z,101317.75
2023-04-16T14:11:51.286Z,101322.06
2023-04-16T14:14:18.779Z,101314.28
2023-04-16T14:16:46.173Z,101313.44
2023-04-16T14:19:14.206Z,101318.69
2023-04-16T14:21:44.274Z,101317.91
2023-04-16T14:24:11.611Z,101316.97
2023-04-16T14:26:39.088Z,101320.81
2023-04-16T14:29:06.415Z,101313.13
2023-04-16T14:31:33.707Z,101319.94
2023-04-16T14:34:04.062Z,101327.72
2023-04-16T14:36:35.141Z,101332.00
2023-04-16T14:39:02.258Z,101326.78
2023-04-16T14:41:30.183Z,101330.69
2023-04-16T14:43:59.152Z,101335.50
2023-04-16T14:46:30.612Z,101332.34
2023-04-16T14:48:57.876Z,101333.25
2023-04-16T14:51:26.604Z,101337.59
2023-04-16T14:53:53.776Z,101335.31
2023-04-16T14:56:21.030Z,101339.13
2023-04-16T14:58:48.214Z,101334.44
2023-04-16T15:01:15.756Z,101335.91
2023-04-16T15:03:43.898Z,101334.59
2023-04-16T15:06:11.429Z,101338.31
2023-04-16T15:08:41.516Z,101336.72
2023-04-16T15:11:10.998Z,101334.97
2023-04-16T15:13:38.237Z,101333.59
2023-04-16T15:16:05.611Z,101338.03
2023-04-16T15:18:33.419Z,101341.88
2023-04-16T15:21:00.672Z,101341.59
2023-04-16T15:23:27.758Z,101344.78
2023-04-16T15:25:54.966Z,101345.69
2023-04-16T15:28:22.078Z,101356.22
2023-04-16T15:30:52.516Z,101349.41
2023-04-16T15:33:22.409Z,101349.66
2023-04-16T15:35:51.765Z,101343.16
2023-04-16T15:38:21.437Z,101357.06
2023-04-16T15:40:48.761Z,101353.94
2023-04-16T15:43:19.078Z,101357.22
2023-04-16T15:45:46.470Z,101359.94
2023-04-16T15:48:14.313Z,101351.22
2023-04-16T15:50:41.865Z,101360.72
2023-04-16T15:53:09.036Z,101364.38
2023-04-16T15:55:36.784Z,101371.66
2023-04-16T15:58:03.991Z,101369.84
2023-04-16T16:00:31.233Z,101374.00
2023-04-16T16:02:58.751Z,101379.00
2023-04-16T16:05:26.421Z,101378.03
2023-04-16T16:07:53.760Z,101382.28
2023-04-16T16:10:21.021Z,101381.72
2023-04-16T16:12:51.292Z,101382.75
2023-04-16T16:15:18.648Z,101380.84
2023-04-16T16:17:47.653Z,101387.16
2023-04-16T16:20:14.852Z,101381.19
2023-04-16T16:22:45.135Z,101385.44
2023-04-16T16:25:14.825Z,101391.31
2023-04-16T16:27:48.553Z,101390.34
2023-04-16T16:30:15.962Z,101396.03
2023-04-16T16:32:49.385Z,101386.81
2023-04-16T16:35:16.930Z,101392.03
2023-04-16T16:37:47.260Z,101386.81
2023-04-16T16:40:14.481Z,101402.63
2023-04-16T16:42:44.099Z,101400.44
2023-04-16T16:45:19.645Z,101399.53
2023-04-16T16:47:47.251Z,101392.38
2023-04-16T16:50:14.605Z,101401.47
2023-04-16T16:52:41.653Z,101398.31
2023-04-16T16:55:10.875Z,101404.88
2023-04-16T16:57:41.131Z,101405.28
2023-04-16T17:00:14.229Z,101411.75
2023-04-16T17:02:41.668Z,101411.34
2023-04-16T17:05:09.578Z,101414.06
2023-04-16T17:07:37.959Z,101418.88
2023-04-16T17:10:07.317Z,101416.78
2023-04-16T17:12:35.506Z,101412.81
2023-04-16T17:15:02.991Z,101418.88
2023-04-16T17:17:30.899Z,101424.50
2023-04-16T17:19:58.210Z,101424.31
2023-04-16T17:22:25.350Z,101431.75
2023-04-16T17:24:52.382Z,101430.47
2023-04-16T17:27:34.642Z,101431.81
2023-04-16T17:30:05.176Z,101431.00
2023-04-16T17:32:32.951Z,101437.94
2023-04-16T17:35:04.142Z,101434.31
2023-04-16T17:37:31.845Z,101439.25
2023-04-16T17:39:58.931Z,101447.19
2023-04-16T17:42:26.213Z,101444.91
2023-04-16T17:44:53.298Z,101447.13
2023-04-16T17:47:20.465Z,101457.44
2023-04-16T17:49:47.588Z,101459.88
2023-04-16T17:52:14.817Z,101453.44
2023-04-16T17:54:42.525Z,101453.50
2023-04-16T17:57:09.611Z,101453.00
2023-04-16T17:59:36.673Z,101460.28
2023-04-16T18:02:03.834Z,101460.28
2023-04-16T18:04:31.239Z,101466.38
2023-04-16T18:06:58.504Z,101464.34
2023-04-16T18:09:26.122Z,101467.38
2023-04-16T18:11:53.686Z,101472.50
2023-04-16T18:14:21.475Z,101472.84
2023-04-16T18:16:49.723Z,101480.13
2023-04-16T18:19:16.955Z,101478.16
2023-04-16T18:21:44.112Z,101481.25
2023-04-16T18:24:11.724Z,101484.75
2023-04-16T18:26:40.881Z,101495.19
2023-04-16T18:29:09.134Z,101493.47
2023-04-16T18:31:36.559Z,101499.84
2023-04-16T18:34:03.737Z,101505.47
2023-04-16T18:36:31.125Z,101507.09
2023-04-16T18:39:02.166Z,101505.47
2023-04-16T18:41:31.145Z,101513.78
2023-04-16T18:43:58.667Z,101516.75
2023-04-16T18:46:28.770Z,101521.19
2023-04-16T18:48:55.998Z,101518.81
2023-04-16T18:51:23.244Z,101520.50
2023-04-16T18:53:50.644Z,101526.59
2023-04-16T18:56:18.045Z,101531.03
2023-04-16T18:58:45.072Z,101532.81
2023-04-16T19:01:13.809Z,101530.44
2023-04-16T19:03:41.012Z,101530.28
2023-04-16T19:06:08.227Z,101527.66
2023-04-16T19:08:35.412Z,101522.88
2023-04-16T19:11:02.472Z,101526.84
2023-04-16T19:13:30.519Z,101533.44
2023-04-16T19:16:01.617Z,101536.31
2023-04-16T19:18:28.974Z,101528.22
2023-04-16T19:21:00.858Z,101534.97
2023-04-16T19:23:28.776Z,101536.66
2023-04-16T19:25:56.859Z,101542.88
2023-04-16T19:28:25.466Z,101540.91
2023-04-16T19:30:53.826Z,101544.22
2023-04-16T19:33:21.012Z,101540.19
2023-04-16T19:35:48.232Z,101546.16
2023-04-16T19:38:15.630Z,101547.41
2023-04-16T19:40:46.520Z,101551.56
2023-04-16T19:43:14.042Z,101538.22
2023-04-16T19:45:54.832Z,101560.25
2023-04-16T19:48:22.186Z,101553.53
2023-04-16T19:50:49.307Z,101553.47
2023-04-16T19:53:19.105Z,101553.94
2023-04-16T19:55:46.641Z,101548.38
2023-04-16T19:58:14.526Z,101551.97
2023-04-16T20:00:42.049Z,101545.34
2023-04-16T20:03:09.624Z,101553.78
2023-04-16T20:05:36.824Z,101554.69
2023-04-16T20:08:04.002Z,101554.78
2023-04-16T20:10:31.407Z,101554.47
2023-04-16T20:12:58.822Z,101551.22
2023-04-16T20:15:25.991Z,101558.09
2023-04-16T20:17:53.327Z,101560.41
2023-04-16T20:20:22.528Z,101559.72
2023-04-16T20:22:49.809Z,101557.59
2023-04-16T20:25:18.920Z,101554.59
2023-04-16T20:27:46.130Z,101558.06
2023-04-16T20:30:14.166Z,101555.03
2023-04-16T20:32:41.297Z,101564.19
2023-04-16T20:35:11.283Z,101561.53
2023-04-16T20:37:38.910Z,101560.53
2023-04-16T20:40:10.634Z,101571.97
2023-04-16T20:42:37.708Z,101567.88
2023-04-16T20:45:05.570Z,101570.94
2023-04-16T20:47:34.739Z,101571.81
2023-04-16T20:50:03.664Z,101575.88
2023-04-16T20:52:30.751Z,101571.38
2023-04-16T20:54:57.955Z,101573.06
2023-04-16T20:57:25.735Z,101573.78
2023-04-16T20:59:52.837Z,101573.22
2023-04-16T21:02:20.525Z,101581.16
2023-04-16T21:04:47.768Z,101578.59
2023-04-16T21:07:15.424Z,101582.22
2023-04-16T21:09:42.448Z,101581.56
2023-04-16T21:12:09.486Z,101585.63
2023-04-16T21:14:36.593Z,101585.47
2023-04-16T21:17:05.973Z,101585.56
2023-04-16T21:19:33.015Z,101586.38
2023-04-16T21:22:02.396Z,101582.13
2023-04-16T21:24:31.311Z,101589.50
2023-04-16T21:26:58.414Z,101581.25
2023-04-16T21:29:25.457Z,101585.78
2023-04-16T21:31:52.929Z,101588.19
2023-04-16T21:34:20.450Z,101586.97
2023-04-16T21:36:47.552Z,101587.34
2023-04-16T21:39:17.351Z,101581.44
2023-04-16T21:41:45.599Z,101583.03
2023-04-16T21:44:13.140Z,101593.44
2023-04-16T21:46:40.417Z,101586.38
2023-04-16T21:49:07.506Z,101584.75
2023-04-16T21:51:38.682Z,101585.94
2023-04-16T21:54:07.538Z,101582.19
2023-04-16T21:56:34.648Z,101585.78
2023-04-16T21:59:01.960Z,101580.78
2023-04-16T22:01:31.890Z,101587.47
2023-04-16T22:03:59.087Z,101587.34
2023-04-16T22:06:27.101Z,101583.25
2023-04-16T22:08:54.227Z,101582.56
2023-04-16T22:11:21.299Z,101586.59
2023-04-16T22:13:49.385Z,101588.84
2023-04-16T22:16:16.550Z,101596.59
2023-04-16T22:18:43.788Z,101593.69
2023-04-16T22:21:11.332Z,101597.50
2023-04-16T22:23:38.386Z,101598.09
2023-04-16T22:26:05.506Z,101597.25
2023-04-16T22:28:32.599Z,101596.69
2023-04-16T22:30:59.769Z,101597.34
2023-04-16T22:33:30.633Z,101598.16
2023-04-16T22:35:59.642Z,101597.72
2023-04-16T22:38:26.709Z,101600.03
2023-04-16T22:40:53.734Z,101602.22
2023-04-16T22:43:20.755Z,101603.13
2023-04-16T22:45:47.873Z,101603.59
2023-04-16T22:48:15.505Z,101603.03
2023-04-16T22:50:48.461Z,101595.84
2023-04-16T22:53:15.706Z,101603.94
2023-04-16T22:55:45.080Z,101601.81
2023-04-16T22:58:12.106Z,101600.38
2023-04-16T23:00:39.313Z,101596.13
2023-04-16T23:03:06.476Z,101605.34
2023-04-16T23:05:34.525Z,101608.44
2023-04-16T23:08:01.756Z,101601.81
2023-04-16T23:10:28.961Z,101600.06
2023-04-16T23:12:56.168Z,101600.28
2023-04-16T23:15:23.223Z,101599.22
2023-04-16T23:17:50.370Z,101599.22
2023-04-16T23:20:17.539Z,101603.31
2023-04-16T23:22:44.743Z,101599.63
2023-04-16T23:25:11.776Z,101601.78
2023-04-16T23:27:39.310Z,101604.38
2023-04-16T23:30:07.433Z,101601.16
2023-04-16T23:32:34.603Z,101600.22
2023-04-16T23:35:01.728Z,101598.56
2023-04-16T23:37:28.879Z,101596.13
2023-04-16T23:39:58.910Z,101599.28
2023-04-16T23:42:26.001Z,101601.72
2023-04-16T23:44:53.009Z,101605.78
2023-04-16T23:47:20.173Z,101593.78
2023-04-16T23:49:47.228Z,101608.28
2023-04-16T23:52:14.770Z,101605.44
2023-04-16T23:54:41.873Z,101610.56
2023-04-16T23:57:09.088Z,101601.72
2023-04-16T23:59:36.274Z,101605.28
